Time;durP1;ratioP1;P1;durP2;ratioP2;P2;SDS_P1;SDS_P2;PMS_P1;PMS_P2;Temp;Humidity;BMP_temperature;BMP_pressure;BME280_temperature;BME280_humidity;BME280_pressure;Samples;Min_cycle;Max_cycle;Signal;HPM_P1;HPM_P2
2021/09/29 00:01:26;;;;;;;6.03;1.33;;;;;;;;;;5049224;28;20060;-73
2021/09/29 00:03:53;;;;;;;4.47;1.50;;;;;;;;;;5050826;28;20474;-72
2021/09/29 00:06:20;;;;;;;5.53;2.08;;;;;;;;;;5051833;28;20020;-72
2021/09/29 00:08:47;;;;;;;5.40;1.45;;;;;;;;;;5052225;28;20025;-73
2021/09/29 00:11:14;;;;;;;10.82;2.25;;;;;;;;;;5053816;28;20103;-72
2021/09/29 00:13:41;;;;;;;10.63;2.25;;;;;;;;;;5049342;28;20025;-72
2021/09/29 00:16:08;;;;;;;9.55;1.80;;;;;;;;;;5053100;28;20017;-72
2021/09/29 00:18:36;;;;;;;8.45;1.98;;;;;;;;;;5051646;28;20048;-72
2021/09/29 00:21:03;;;;;;;10.63;1.95;;;;;;;;;;5053709;28;20096;-73
2021/09/29 00:23:30;;;;;;;10.60;2.63;;;;;;;;;;5052121;28;20064;-72
2021/09/29 00:25:57;;;;;;;8.30;2.70;;;;;;;;;;5050473;28;20037;-73
2021/09/29 00:28:24;;;;;;;10.07;2.60;;;;;;;;;;5042495;28;20112;-74
2021/09/29 00:31:02;;;;;;;12.57;2.72;;;;;;;;;;5051058;28;20444;-73
2021/09/29 00:33:29;;;;;;;9.93;2.47;;;;;;;;;;5040474;28;20493;-73
2021/09/29 00:35:57;;;;;;;11.30;2.15;;;;;;;;;;5033194;28;20542;-72
2021/09/29 00:38:24;;;;;;;6.85;2.00;;;;;;;;;;5041930;28;20069;-71
2021/09/29 00:40:51;;;;;;;13.18;2.65;;;;;;;;;;5038955;28;20029;-72
2021/09/29 00:43:18;;;;;;;15.57;3.17;;;;;;;;;;5043369;28;20017;-73
2021/09/29 00:45:45;;;;;;;11.80;2.97;;;;;;;;;;5033192;28;20021;-74
2021/09/29 00:48:12;;;;;;;9.77;2.65;;;;;;;;;;5043528;28;20433;-74
2021/09/29 00:50:39;;;;;;;13.05;3.22;;;;;;;;;;5045659;28;20033;-74
2021/09/29 00:53:06;;;;;;;17.15;4.15;;;;;;;;;;5048066;28;20028;-73
2021/09/29 00:55:34;;;;;;;9.48;2.63;;;;;;;;;;5051413;28;20104;-73
2021/09/29 00:58:02;;;;;;;14.48;2.72;;;;;;;;;;5050856;28;20515;-74
2021/09/29 01:00:29;;;;;;;11.75;2.95;;;;;;;;;;5046491;28;20036;-75
2021/09/29 01:02:56;;;;;;;11.48;2.55;;;;;;;;;;5041031;28;20033;-73
2021/09/29 01:05:23;;;;;;;7.72;1.88;;;;;;;;;;5041717;28;20043;-73
2021/09/29 01:08:16;;;;;;;14.07;2.40;;;;;;;;;;5050985;28;20029;-73
2021/09/29 01:10:51;;;;;;;9.50;2.05;;;;;;;;;;5049099;28;20033;-74
2021/09/29 01:13:21;;;;;;;16.83;2.65;;;;;;;;;;5051108;28;20525;-73
2021/09/29 01:15:50;;;;;;;9.32;1.92;;;;;;;;;;5044449;28;20028;-73
2021/09/29 01:18:20;;;;;;;9.77;2.28;;;;;;;;;;5043186;28;20029;-71
2021/09/29 01:20:55;;;;;;;18.80;2.90;;;;;;;;;;5043071;28;20067;-71
2021/09/29 01:23:28;;;;;;;9.48;2.78;;;;;;;;;;5044702;28;20124;-71
2021/09/29 01:25:58;;;;;;;12.35;3.03;;;;;;;;;;5040659;28;20033;-70
2021/09/29 01:28:28;;;;;;;10.98;2.33;;;;;;;;;;5046853;28;20112;-71
2021/09/29 01:30:56;;;;;;;8.65;2.65;;;;;;;;;;5032751;28;20017;-71
2021/09/29 01:33:23;;;;;;;8.05;1.90;;;;;;;;;;5044982;28;20025;-72
2021/09/29 01:35:50;;;;;;;7.70;2.60;;;;;;;;;;5035688;28;20052;-72
2021/09/29 01:38:17;;;;;;;6.03;1.67;;;;;;;;;;5039399;28;20033;-72
2021/09/29 01:40:45;;;;;;;7.40;1.58;;;;;;;;;;5033793;28;20350;-70
2021/09/29 01:43:12;;;;;;;5.18;1.70;;;;;;;;;;5043983;28;20025;-70
2021/09/29 01:45:39;;;;;;;6.20;1.60;;;;;;;;;;5047657;28;20366;-70
2021/09/29 01:48:07;;;;;;;9.88;2.03;;;;;;;;;;5042486;28;20021;-71
2021/09/29 01:50:34;;;;;;;12.52;1.98;;;;;;;;;;5041569;28;20040;-70
2021/09/29 01:53:01;;;;;;;8.75;1.40;;;;;;;;;;5038941;28;20063;-70
2021/09/29 01:55:29;;;;;;;6.40;1.75;;;;;;;;;;5037548;28;20022;-69
2021/09/29 01:57:56;;;;;;;7.93;1.50;;;;;;;;;;5041511;28;20028;-71
2021/09/29 02:00:24;;;;;;;7.80;1.85;;;;;;;;;;5039108;28;20030;-70
2021/09/29 02:02:56;;;;;;;4.55;1.88;;;;;;;;;;5043558;28;20509;-71
2021/09/29 02:05:34;;;;;;;7.93;2.28;;;;;;;;;;5036784;28;20043;-71
2021/09/29 02:08:02;;;;;;;5.40;1.55;;;;;;;;;;5043516;28;20032;-70
2021/09/29 02:10:30;;;;;;;5.70;1.52;;;;;;;;;;5036414;28;20025;-70
2021/09/29 02:12:59;;;;;;;7.72;2.38;;;;;;;;;;5037723;28;20037;-71
2021/09/29 02:15:26;;;;;;;12.27;2.92;;;;;;;;;;5041842;28;20026;-70
2021/09/29 02:17:54;;;;;;;7.82;2.15;;;;;;;;;;5043815;28;20021;-70
2021/09/29 02:20:21;;;;;;;8.18;2.17;;;;;;;;;;5035839;28;20025;-70
2021/09/29 02:22:48;;;;;;;9.65;2.58;;;;;;;;;;5040422;28;20075;-70
2021/09/29 02:25:15;;;;;;;7.18;1.48;;;;;;;;;;5045415;28;20042;-70
2021/09/29 02:27:43;;;;;;;6.20;1.27;;;;;;;;;;5047948;28;20036;-70
2021/09/29 02:30:11;;;;;;;17.17;2.83;;;;;;;;;;5053096;28;20052;-69
2021/09/29 02:32:38;;;;;;;8.27;1.70;;;;;;;;;;5040281;28;20067;-70
2021/09/29 02:35:07;;;;;;;8.95;1.42;;;;;;;;;;5052173;28;20654;-69
2021/09/29 02:37:34;;;;;;;8.75;2.00;;;;;;;;;;5047288;28;20052;-69
2021/09/29 02:40:02;;;;;;;9.98;1.52;;;;;;;;;;5046545;28;20063;-70
2021/09/29 02:42:29;;;;;;;8.60;1.30;;;;;;;;;;5044763;28;20059;-70
2021/09/29 02:44:56;;;;;;;4.88;1.70;;;;;;;;;;5045924;28;20075;-69
2021/09/29 02:47:23;;;;;;;6.75;1.08;;;;;;;;;;5050423;28;20017;-69
2021/09/29 02:49:50;;;;;;;12.65;2.28;;;;;;;;;;5043642;28;20500;-70
2021/09/29 02:52:17;;;;;;;7.00;1.38;;;;;;;;;;5040745;28;20036;-70
2021/09/29 02:54:44;;;;;;;9.32;1.50;;;;;;;;;;5043284;28;20056;-70
2021/09/29 02:57:11;;;;;;;9.35;1.80;;;;;;;;;;5044270;28;20062;-71
2021/09/29 02:59:38;;;;;;;9.57;1.58;;;;;;;;;;5041632;28;20013;-70
2021/09/29 03:02:06;;;;;;;7.65;1.80;;;;;;;;;;5045570;28;20412;-69
2021/09/29 03:04:33;;;;;;;13.07;1.90;;;;;;;;;;5051667;28;20079;-69
2021/09/29 03:07:00;;;;;;;7.93;2.00;;;;;;;;;;5045968;28;20094;-70
2021/09/29 03:09:27;;;;;;;11.05;1.65;;;;;;;;;;5054895;28;20024;-69
2021/09/29 03:11:54;;;;;;;11.15;2.22;;;;;;;;;;5053763;28;20026;-69
2021/09/29 03:14:21;;;;;;;8.23;1.65;;;;;;;;;;5049552;28;20025;-69
2021/09/29 03:16:48;;;;;;;6.80;1.65;;;;;;;;;;5052810;28;20031;-69
2021/09/29 03:19:15;;;;;;;9.23;2.35;;;;;;;;;;5048865;28;20017;-70
2021/09/29 03:21:43;;;;;;;6.13;1.67;;;;;;;;;;5040645;28;20083;-70
2021/09/29 03:24:11;;;;;;;12.45;1.80;;;;;;;;;;5049735;28;20129;-70
2021/09/29 03:26:38;;;;;;;7.13;1.70;;;;;;;;;;5040701;28;20025;-70
2021/09/29 03:29:05;;;;;;;9.05;1.85;;;;;;;;;;5049045;28;20017;-70
2021/09/29 03:31:32;;;;;;;7.65;1.83;;;;;;;;;;5037816;28;20037;-70
2021/09/29 03:33:59;;;;;;;6.93;1.92;;;;;;;;;;5042625;28;20107;-70
2021/09/29 03:36:26;;;;;;;11.65;2.83;;;;;;;;;;5054104;28;20024;-70
2021/09/29 03:38:53;;;;;;;6.50;1.55;;;;;;;;;;5047720;28;20049;-69
2021/09/29 03:41:21;;;;;;;8.85;1.90;;;;;;;;;;5046895;28;20029;-70
2021/09/29 03:43:48;;;;;;;8.73;1.73;;;;;;;;;;5051390;28;20024;-70
2021/09/29 03:46:15;;;;;;;6.43;1.77;;;;;;;;;;5044307;28;20486;-69
2021/09/29 03:48:43;;;;;;;8.35;2.28;;;;;;;;;;5052134;28;20032;-69
2021/09/29 03:51:11;;;;;;;15.00;2.95;;;;;;;;;;5053203;28;20029;-69
2021/09/29 03:53:38;;;;;;;6.57;1.92;;;;;;;;;;5052703;28;20108;-70
2021/09/29 03:56:05;;;;;;;13.23;2.58;;;;;;;;;;5052992;28;20143;-68
2021/09/29 03:58:32;;;;;;;10.57;2.47;;;;;;;;;;5051299;28;20028;-70
2021/09/29 04:00:59;;;;;;;7.95;2.72;;;;;;;;;;5048606;28;20038;-69
2021/09/29 04:03:26;;;;;;;10.77;3.20;;;;;;;;;;5047591;28;20028;-69
2021/09/29 04:05:53;;;;;;;11.25;2.95;;;;;;;;;;5051276;28;20793;-69
2021/09/29 04:08:20;;;;;;;11.57;3.30;;;;;;;;;;5047763;28;20100;-69
2021/09/29 04:10:47;;;;;;;13.63;3.45;;;;;;;;;;5044013;28;20027;-68
2021/09/29 04:13:15;;;;;;;12.65;3.28;;;;;;;;;;5045138;28;20033;-67
2021/09/29 04:15:42;;;;;;;13.52;3.08;;;;;;;;;;5038833;28;20022;-67
2021/09/29 04:18:09;;;;;;;12.07;2.55;;;;;;;;;;5035728;28;20079;-67
2021/09/29 04:20:36;;;;;;;9.95;3.28;;;;;;;;;;5033560;28;20522;-68
2021/09/29 04:23:03;;;;;;;11.45;2.88;;;;;;;;;;5033714;28;20034;-67
2021/09/29 04:25:30;;;;;;;9.43;3.00;;;;;;;;;;5044433;28;20037;-69
2021/09/29 04:27:57;;;;;;;14.65;3.53;;;;;;;;;;5036350;28;20191;-69
2021/09/29 04:30:24;;;;;;;9.80;2.53;;;;;;;;;;5060712;28;20029;-69
2021/09/29 04:32:52;;;;;;;11.40;3.33;;;;;;;;;;5034504;28;20029;-67
2021/09/29 04:35:19;;;;;;;11.05;3.22;;;;;;;;;;5051845;28;20090;-68
2021/09/29 04:37:46;;;;;;;9.25;3.28;;;;;;;;;;5036411;28;20014;-68
2021/09/29 04:40:13;;;;;;;8.95;2.95;;;;;;;;;;5033147;28;20510;-68
2021/09/29 04:42:40;;;;;;;16.17;3.60;;;;;;;;;;5042378;28;20025;-68
2021/09/29 04:45:07;;;;;;;11.65;2.92;;;;;;;;;;5044402;28;20033;-68
2021/09/29 04:47:38;;;;;;;10.82;3.20;;;;;;;;;;5041748;28;20056;-69
2021/09/29 04:50:05;;;;;;;11.65;3.00;;;;;;;;;;5038942;28;20037;-69
2021/09/29 04:52:32;;;;;;;7.07;2.88;;;;;;;;;;5047047;28;20021;-69
2021/09/29 04:54:59;;;;;;;10.35;2.70;;;;;;;;;;5035661;28;20474;-69
2021/09/29 04:57:28;;;;;;;15.13;4.28;;;;;;;;;;5038326;28;20033;-69
2021/09/29 04:59:55;;;;;;;14.35;4.30;;;;;;;;;;5032042;28;20037;-69
2021/09/29 05:02:24;;;;;;;22.42;4.25;;;;;;;;;;5038750;28;20021;-68
2021/09/29 05:04:51;;;;;;;13.27;3.38;;;;;;;;;;5047688;28;20044;-68
2021/09/29 05:07:19;;;;;;;16.85;2.97;;;;;;;;;;5042368;28;20029;-68
2021/09/29 05:09:50;;;;;;;18.90;4.47;;;;;;;;;;5035400;28;20108;-69
2021/09/29 05:12:21;;;;;;;17.13;3.75;;;;;;;;;;5039075;28;20112;-68
2021/09/29 05:14:49;;;;;;;15.43;4.35;;;;;;;;;;5041044;28;20489;-69
2021/09/29 05:17:16;;;;;;;15.93;4.22;;;;;;;;;;5050091;28;20017;-69
2021/09/29 05:19:43;;;;;;;15.73;3.17;;;;;;;;;;5043299;28;20026;-69
2021/09/29 05:22:10;;;;;;;18.45;4.10;;;;;;;;;;5036132;28;20028;-68
2021/09/29 05:24:37;;;;;;;16.13;4.57;;;;;;;;;;5052355;28;20029;-68
2021/09/29 05:27:05;;;;;;;15.15;3.95;;;;;;;;;;5041673;28;21715;-68
2021/09/29 05:29:32;;;;;;;18.48;4.30;;;;;;;;;;5049850;28;20378;-67
2021/09/29 05:32:00;;;;;;;16.30;3.80;;;;;;;;;;5043284;28;20110;-68
2021/09/29 05:34:27;;;;;;;12.23;4.13;;;;;;;;;;5052082;28;20441;-68
2021/09/29 05:36:54;;;;;;;14.75;4.05;;;;;;;;;;5047425;28;20024;-68
2021/09/29 05:39:22;;;;;;;17.77;3.85;;;;;;;;;;5041976;28;20091;-68
2021/09/29 05:41:50;;;;;;;25.40;6.80;;;;;;;;;;5039210;28;20481;-70
2021/09/29 05:44:17;;;;;;;16.05;4.75;;;;;;;;;;5043069;28;20040;-69
2021/09/29 05:46:45;;;;;;;16.35;3.85;;;;;;;;;;5042807;28;20421;-69
2021/09/29 05:49:12;;;;;;;14.50;4.93;;;;;;;;;;5041877;28;20068;-69
2021/09/29 05:51:39;;;;;;;13.35;4.22;;;;;;;;;;5031243;28;20072;-68
2021/09/29 05:54:06;;;;;;;15.25;3.90;;;;;;;;;;5042625;28;20063;-69
2021/09/29 05:56:33;;;;;;;14.43;3.90;;;;;;;;;;5036385;28;20021;-69
2021/09/29 05:59:00;;;;;;;14.70;3.50;;;;;;;;;;5036433;28;20116;-69
2021/09/29 06:01:27;;;;;;;12.75;2.83;;;;;;;;;;5037005;28;20533;-69
2021/09/29 06:03:54;;;;;;;11.07;3.60;;;;;;;;;;5042880;28;20034;-69
2021/09/29 06:06:22;;;;;;;11.00;3.47;;;;;;;;;;5036375;28;20040;-69
2021/09/29 06:08:49;;;;;;;13.07;3.55;;;;;;;;;;5044153;28;20017;-69
2021/09/29 06:11:16;;;;;;;12.98;3.53;;;;;;;;;;5047851;28;20043;-69
2021/09/29 06:13:43;;;;;;;7.50;2.97;;;;;;;;;;5038258;28;20025;-69
2021/09/29 06:16:11;;;;;;;8.00;3.45;;;;;;;;;;5038750;28;20055;-69
2021/09/29 06:18:40;;;;;;;10.68;3.50;;;;;;;;;;5043748;28;20025;-70
2021/09/29 06:21:07;;;;;;;11.50;4.00;;;;;;;;;;5036444;28;20016;-69
2021/09/29 06:23:35;;;;;;;7.25;2.33;;;;;;;;;;5046967;28;20586;-69
2021/09/29 06:26:03;;;;;;;15.73;3.42;;;;;;;;;;5043588;28;20026;-69
2021/09/29 06:28:34;;;;;;;9.50;2.60;;;;;;;;;;5044545;28;20086;-67
2021/09/29 06:31:02;;;;;;;12.32;3.08;;;;;;;;;;5046113;28;20025;-69
2021/09/29 06:33:29;;;;;;;7.97;2.95;;;;;;;;;;5042722;28;20056;-69
2021/09/29 06:35:56;;;;;;;15.02;2.80;;;;;;;;;;5046566;28;20370;-68
2021/09/29 06:38:23;;;;;;;9.27;2.88;;;;;;;;;;5044124;28;20049;-68
2021/09/29 06:40:50;;;;;;;15.88;3.80;;;;;;;;;;5063772;28;20033;-69
2021/09/29 06:43:21;;;;;;;16.48;4.20;;;;;;;;;;5049135;28;20099;-70
2021/09/29 06:45:48;;;;;;;12.40;3.22;;;;;;;;;;5046613;28;20033;-68
2021/09/29 06:48:16;;;;;;;12.90;3.05;;;;;;;;;;5043364;28;20036;-68
2021/09/29 06:50:43;;;;;;;10.75;2.75;;;;;;;;;;5049700;28;20111;-69
2021/09/29 06:53:20;;;;;;;10.25;2.50;;;;;;;;;;5041452;28;20037;-69
2021/09/29 06:55:49;;;;;;;13.55;2.40;;;;;;;;;;5046372;28;20560;-68
2021/09/29 06:58:16;;;;;;;8.60;2.83;;;;;;;;;;5045227;28;20063;-69
2021/09/29 07:00:44;;;;;;;11.48;2.58;;;;;;;;;;5054266;28;20096;-69
2021/09/29 07:03:14;;;;;;;14.00;3.35;;;;;;;;;;5052690;28;20025;-69
2021/09/29 07:05:41;;;;;;;11.93;2.22;;;;;;;;;;5049338;28;20078;-69
2021/09/29 07:08:08;;;;;;;10.88;2.35;;;;;;;;;;5045409;28;20021;-69
2021/09/29 07:10:35;;;;;;;9.35;3.28;;;;;;;;;;5047701;28;20490;-70
2021/09/29 07:13:03;;;;;;;11.07;2.72;;;;;;;;;;5048276;28;20032;-69
2021/09/29 07:15:30;;;;;;;9.50;3.20;;;;;;;;;;5042996;28;20082;-69
2021/09/29 07:17:58;;;;;;;10.27;3.00;;;;;;;;;;5052315;28;20025;-69
2021/09/29 07:20:26;;;;;;;8.27;2.38;;;;;;;;;;5052734;28;20025;-69
2021/09/29 07:22:53;;;;;;;11.02;3.13;;;;;;;;;;5047826;28;20080;-69
2021/09/29 07:25:21;;;;;;;13.00;4.22;;;;;;;;;;5046650;28;20029;-69
2021/09/29 07:27:48;;;;;;;11.27;3.17;;;;;;;;;;5053128;28;20029;-69
2021/09/29 07:30:16;;;;;;;13.10;3.22;;;;;;;;;;5042120;28;20071;-69
2021/09/29 07:32:45;;;;;;;11.15;2.75;;;;;;;;;;5042869;28;20029;-69
2021/09/29 07:35:13;;;;;;;10.98;3.53;;;;;;;;;;5038777;28;20016;-69
2021/09/29 07:37:40;;;;;;;13.88;2.55;;;;;;;;;;5050049;28;20024;-69
2021/09/29 07:40:08;;;;;;;14.43;3.50;;;;;;;;;;5046413;28;20055;-69
2021/09/29 07:42:35;;;;;;;14.02;2.47;;;;;;;;;;5038178;28;20327;-69
2021/09/29 07:45:03;;;;;;;12.77;2.92;;;;;;;;;;5038688;28;20405;-69
2021/09/29 07:47:30;;;;;;;14.45;3.13;;;;;;;;;;5033955;28;20061;-69
2021/09/29 07:49:58;;;;;;;10.45;2.63;;;;;;;;;;5043050;28;20021;-69
2021/09/29 07:52:25;;;;;;;16.25;4.38;;;;;;;;;;5037664;28;20017;-69
2021/09/29 07:54:52;;;;;;;9.85;3.05;;;;;;;;;;5042192;28;20052;-69
2021/09/29 07:57:19;;;;;;;12.25;3.17;;;;;;;;;;5052729;28;20048;-68
2021/09/29 07:59:47;;;;;;;11.93;3.10;;;;;;;;;;5045042;28;20094;-69
2021/09/29 08:02:14;;;;;;;12.63;2.65;;;;;;;;;;5044280;28;20014;-68
2021/09/29 08:04:41;;;;;;;12.25;3.15;;;;;;;;;;5053384;28;20033;-69
2021/09/29 08:07:08;;;;;;;13.13;3.72;;;;;;;;;;5045502;28;20024;-68
2021/09/29 08:09:35;;;;;;;14.27;3.55;;;;;;;;;;5033510;28;20103;-68
2021/09/29 08:12:02;;;;;;;10.95;3.22;;;;;;;;;;5033368;28;20017;-69
2021/09/29 08:14:29;;;;;;;15.00;3.95;;;;;;;;;;5032324;28;20021;-67
2021/09/29 08:16:57;;;;;;;12.88;3.67;;;;;;;;;;5048180;28;20104;-68
2021/09/29 08:19:24;;;;;;;11.38;3.60;;;;;;;;;;5033811;28;20084;-68
2021/09/29 08:21:51;;;;;;;14.40;3.45;;;;;;;;;;5034481;28;20052;-67
2021/09/29 08:24:22;;;;;;;13.45;4.03;;;;;;;;;;5050166;28;20048;-68
2021/09/29 08:32:12;;;;;;;12.88;3.17;;;;;;;;;;5048595;28;20494;-68
2021/09/29 08:39:57;;;;;;;13.43;3.60;;;;;;;;;;5015579;28;20045;-69
2021/09/29 08:45:17;;;;;;;16.48;4.38;;;;;;;;;;5045868;28;19916;-69
2021/09/29 08:50:36;;;;;;;17.17;5.35;;;;;;;;;;5033944;28;20120;-69
2021/09/29 08:53:29;;;;;;;18.92;5.20;;;;;;;;;;5036845;28;20041;-69
2021/09/29 09:15:38;;;;;;;19.40;4.85;;;;;;;;;;5020660;28;20034;-68
2021/09/29 09:18:06;;;;;;;21.95;5.18;;;;;;;;;;5032709;28;20053;-69
2021/09/29 09:20:36;;;;;;;17.88;4.82;;;;;;;;;;5046997;28;20147;-69
2021/09/29 09:23:03;;;;;;;18.55;5.45;;;;;;;;;;5035001;28;20060;-68
2021/09/29 09:25:40;;;;;;;14.30;4.50;;;;;;;;;;5049293;28;20120;-69
2021/09/29 09:28:14;;;;;;;17.73;5.18;;;;;;;;;;5050539;28;20108;-70
2021/09/29 09:30:41;;;;;;;8.55;5.10;;;;;;;;;;5048373;28;20539;-69
2021/09/29 09:33:09;;;;;;;13.15;4.60;;;;;;;;;;5045548;28;20025;-69
2021/09/29 09:35:43;;;;;;;14.10;4.68;;;;;;;;;;5035900;28;20029;-70
2021/09/29 09:38:19;;;;;;;15.38;5.00;;;;;;;;;;5045179;28;20028;-69
2021/09/29 09:40:52;;;;;;;15.35;5.20;;;;;;;;;;5045252;28;20100;-69
2021/09/29 09:43:20;;;;;;;13.38;4.18;;;;;;;;;;5048078;28;20021;-70
2021/09/29 09:45:48;;;;;;;11.95;4.53;;;;;;;;;;5043467;28;20112;-69
2021/09/29 09:48:23;;;;;;;10.27;4.47;;;;;;;;;;5033461;28;20032;-70
2021/09/29 09:50:53;;;;;;;12.50;3.85;;;;;;;;;;5035451;28;20109;-69
2021/09/29 09:53:20;;;;;;;14.05;5.55;;;;;;;;;;5045817;28;20070;-69
2021/09/29 09:55:50;;;;;;;8.02;4.07;;;;;;;;;;5047800;28;20082;-69
2021/09/29 09:58:17;;;;;;;9.90;4.22;;;;;;;;;;5031740;28;20112;-69
2021/09/29 10:00:44;;;;;;;9.88;4.90;;;;;;;;;;5041368;28;20509;-69
2021/09/29 10:03:12;;;;;;;12.52;4.15;;;;;;;;;;5050629;28;20115;-69
2021/09/29 10:05:42;;;;;;;12.10;4.90;;;;;;;;;;5045366;28;20033;-69
2021/09/29 10:08:13;;;;;;;11.88;4.18;;;;;;;;;;5031585;28;20022;-69
2021/09/29 10:10:54;;;;;;;11.25;4.05;;;;;;;;;;5041115;28;20021;-70
2021/09/29 10:14:11;;;;;;;10.10;3.85;;;;;;;;;;5032370;28;20430;-70
2021/09/29 10:27:18;;;;;;;8.30;3.45;;;;;;;;;;5031408;28;20040;-69
2021/09/29 10:29:49;;;;;;;13.18;4.18;;;;;;;;;;5031590;28;20553;-69
2021/09/29 10:32:20;;;;;;;12.73;4.15;;;;;;;;;;5040714;28;20021;-70
2021/09/29 10:35:00;;;;;;;11.10;3.45;;;;;;;;;;5040004;28;20025;-70
2021/09/29 10:37:53;;;;;;;7.55;3.08;;;;;;;;;;5048081;28;20081;-70
2021/09/29 10:40:34;;;;;;;8.68;3.35;;;;;;;;;;5045393;28;20131;-70
2021/09/29 10:43:03;;;;;;;5.28;3.17;;;;;;;;;;5033597;28;20036;-70
2021/09/29 11:27:32;;;;;;;14.52;4.50;;;;;;;;;;5049903;28;20090;-69
2021/09/29 11:28:52;;;;;;;7.63;2.72;;;;;;;;;;5041807;28;20040;-69
2021/09/29 11:31:23;;;;;;;10.40;2.97;;;;;;;;;;5044921;28;20034;-70
2021/09/29 11:39:38;;;;;;;5.47;2.88;;;;;;;;;;5040576;28;20073;-69
2021/09/29 12:12:23;;;;;;;;;;;;;;;;;;5046944;28;20385;-70
2021/09/29 12:14:51;;;;;;;5.10;2.65;;;;;;;;;;5050460;28;19909;-70
2021/09/29 12:17:26;;;;;;;7.57;3.22;;;;;;;;;;5048759;28;20021;-71
2021/09/29 12:19:56;;;;;;;5.95;2.50;;;;;;;;;;5042261;28;20021;-70
2021/09/29 12:22:24;;;;;;;6.60;3.00;;;;;;;;;;5046713;28;20021;-70
2021/09/29 12:25:10;;;;;;;6.63;3.22;;;;;;;;;;5042743;28;20502;-70
2021/09/29 12:27:50;;;;;;;7.82;3.53;;;;;;;;;;5048652;28;20032;-70
2021/09/29 12:30:20;;;;;;;7.18;3.40;;;;;;;;;;5051392;28;20036;-70
2021/09/29 12:33:34;;;;;;;10.77;3.85;;;;;;;;;;5044376;28;20021;-71
2021/09/29 12:35:53;;;;;;;6.22;3.55;;;;;;;;;;5043563;28;20025;-70
2021/09/29 12:38:21;;;;;;;5.75;2.90;;;;;;;;;;5038015;28;20111;-70
2021/09/29 12:40:52;;;;;;;4.65;2.67;;;;;;;;;;5040633;28;20116;-70
2021/09/29 12:43:21;;;;;;;5.43;2.92;;;;;;;;;;5038972;28;20029;-70
2021/09/29 12:45:50;;;;;;;6.68;2.85;;;;;;;;;;5033798;28;20116;-70
2021/09/29 12:48:20;;;;;;;8.25;3.33;;;;;;;;;;5046088;28;20075;-70
2021/09/29 12:53:22;;;;;;;6.20;3.45;;;;;;;;;;5041500;28;20239;-70
2021/09/29 12:58:52;;;;;;;6.57;2.42;;;;;;;;;;4996862;28;20038;-70
2021/09/29 13:01:19;;;;;;;4.30;2.63;;;;;;;;;;5032680;28;20033;-70
2021/09/29 13:03:46;;;;;;;5.15;2.72;;;;;;;;;;5061544;28;20033;-70
2021/09/29 13:06:14;;;;;;;4.57;2.63;;;;;;;;;;5061308;28;20504;-70
2021/09/29 13:08:41;;;;;;;7.15;2.30;;;;;;;;;;5039670;28;20034;-70
2021/09/29 13:11:08;;;;;;;4.97;2.67;;;;;;;;;;5039424;28;20026;-70
2021/09/29 13:13:35;;;;;;;4.93;2.60;;;;;;;;;;5048708;28;20753;-70
2021/09/29 13:16:05;;;;;;;4.18;2.30;;;;;;;;;;5048011;28;20044;-70
2021/09/29 13:21:14;;;;;;;4.70;2.10;;;;;;;;;;5040390;28;20029;-70
2021/09/29 13:23:48;;;;;;;7.00;2.95;;;;;;;;;;5047419;28;20024;-70
2021/09/29 13:37:01;;;;;;;7.05;3.03;;;;;;;;;;5042567;28;20048;-71
2021/09/29 13:39:28;;;;;;;5.55;2.65;;;;;;;;;;5040984;28;20041;-70
2021/09/29 13:41:55;;;;;;;8.40;3.20;;;;;;;;;;5047326;28;20060;-70
2021/09/29 13:44:26;;;;;;;6.80;3.10;;;;;;;;;;5044185;28;20033;-70
2021/09/29 13:46:53;;;;;;;4.50;3.20;;;;;;;;;;5037768;28;20032;-70
2021/09/29 13:49:23;;;;;;;6.93;3.65;;;;;;;;;;5036064;28;20030;-70
2021/09/29 13:51:53;;;;;;;6.00;3.70;;;;;;;;;;5038973;28;20028;-70
2021/09/29 13:54:22;;;;;;;7.15;3.22;;;;;;;;;;5048651;28;20036;-70
2021/09/29 14:29:08;;;;;;;5.35;2.55;;;;;;;;;;5054616;28;20138;-69
2021/09/29 14:34:14;;;;;;;3.25;2.13;;;;;;;;;;5043683;28;20060;-69
2021/09/29 14:36:42;;;;;;;3.58;2.20;;;;;;;;;;5041376;28;20495;-70
2021/09/29 14:39:09;;;;;;;5.10;2.25;;;;;;;;;;5048343;28;20084;-70
2021/09/29 14:41:36;;;;;;;3.88;2.05;;;;;;;;;;5050489;28;20067;-69
2021/09/29 14:44:03;;;;;;;5.18;2.42;;;;;;;;;;5047411;28;20068;-69
2021/09/29 14:46:31;;;;;;;5.25;1.63;;;;;;;;;;5037490;28;20024;-69
2021/09/29 14:48:58;;;;;;;1.90;1.05;;;;;;;;;;5044729;28;20036;-70
2021/09/29 14:51:25;;;;;;;3.08;1.52;;;;;;;;;;5051040;28;20049;-70
2021/09/29 14:53:54;;;;;;;1.65;1.27;;;;;;;;;;5042315;28;20112;-70
2021/09/29 14:56:21;;;;;;;1.83;1.30;;;;;;;;;;5041781;28;20100;-70
2021/09/29 14:58:48;;;;;;;3.05;1.52;;;;;;;;;;5040050;28;20056;-70
2021/09/29 15:01:16;;;;;;;2.47;1.55;;;;;;;;;;5042939;28;20028;-70
2021/09/29 15:03:46;;;;;;;2.13;1.20;;;;;;;;;;5040201;28;20401;-70
2021/09/29 15:06:16;;;;;;;1.30;1.02;;;;;;;;;;5042806;28;20470;-70
2021/09/29 15:08:44;;;;;;;1.38;0.88;;;;;;;;;;5039371;28;20037;-70
2021/09/29 15:11:12;;;;;;;1.70;1.08;;;;;;;;;;5045431;28;20107;-70
2021/09/29 15:13:52;;;;;;;2.47;1.30;;;;;;;;;;5044223;28;20025;-70
2021/09/29 15:16:45;;;;;;;2.40;1.25;;;;;;;;;;5046991;28;20024;-70
2021/09/29 15:21:57;;;;;;;2.15;1.40;;;;;;;;;;5046052;28;20036;-70
2021/09/29 15:24:34;;;;;;;1.45;0.85;;;;;;;;;;5044879;28;20032;-70
2021/09/29 15:46:31;;;;;;;1.33;0.95;;;;;;;;;;5040612;28;20144;-69
2021/09/29 15:51:46;;;;;;;2.35;0.90;;;;;;;;;;5042942;28;20037;-70
2021/09/29 15:59:46;;;;;;;5.90;1.40;;;;;;;;;;5047054;28;20060;-68
2021/09/29 16:02:26;;;;;;;3.28;1.45;;;;;;;;;;5042112;28;20017;-68
2021/09/29 16:13:00;;;;;;;1.30;0.77;;;;;;;;;;5047112;28;20108;-68
2021/09/29 16:31:19;;;;;;;2.85;1.40;;;;;;;;;;5033268;28;20409;-69
2021/09/29 16:33:50;;;;;;;3.05;1.35;;;;;;;;;;5042074;28;20036;-69
2021/09/29 16:36:18;;;;;;;11.82;5.82;;;;;;;;;;5039133;28;20386;-69
2021/09/29 16:38:46;;;;;;;4.18;2.10;;;;;;;;;;5035391;28;20139;-70
2021/09/29 16:41:14;;;;;;;2.25;1.40;;;;;;;;;;5045935;28;20106;-69
2021/09/29 16:43:42;;;;;;;2.03;1.17;;;;;;;;;;5046150;28;20512;-68
2021/09/29 16:46:10;;;;;;;1.70;1.58;;;;;;;;;;5035761;28;20570;-69
2021/09/29 16:48:37;;;;;;;3.47;1.35;;;;;;;;;;5047125;28;20386;-69
2021/09/29 16:51:24;;;;;;;3.55;1.50;;;;;;;;;;5051975;28;20025;-69
2021/09/29 16:53:56;;;;;;;2.63;1.67;;;;;;;;;;5049370;28;20025;-70
2021/09/29 16:56:23;;;;;;;2.85;1.98;;;;;;;;;;5051025;28;20466;-69
2021/09/29 16:59:00;;;;;;;14.52;5.57;;;;;;;;;;5046021;28;20044;-69
2021/09/29 17:01:30;;;;;;;10.50;4.68;;;;;;;;;;5047327;28;20020;-69
2021/09/29 17:03:57;;;;;;;8.70;4.00;;;;;;;;;;5046204;28;20029;-69
2021/09/29 17:06:24;;;;;;;10.65;6.53;;;;;;;;;;5044159;28;20036;-70
2021/09/29 17:08:51;;;;;;;8.60;4.82;;;;;;;;;;5039852;28;20100;-69
2021/09/29 17:11:19;;;;;;;9.25;4.68;;;;;;;;;;5044235;28;20100;-69
2021/09/29 17:13:46;;;;;;;10.23;4.57;;;;;;;;;;5050592;28;20032;-68
2021/09/29 17:16:26;;;;;;;6.07;3.10;;;;;;;;;;5041331;28;20449;-69
2021/09/29 17:18:55;;;;;;;6.03;3.25;;;;;;;;;;5061105;28;20136;-69
2021/09/29 17:21:23;;;;;;;4.28;1.92;;;;;;;;;;5040293;28;20021;-69
2021/09/29 17:23:51;;;;;;;2.38;2.08;;;;;;;;;;5042648;28;20040;-69
2021/09/29 17:26:18;;;;;;;3.67;1.73;;;;;;;;;;5048499;28;20025;-69
2021/09/29 17:28:49;;;;;;;2.33;1.67;;;;;;;;;;5042053;28;20025;-69
2021/09/29 17:31:21;;;;;;;3.10;1.70;;;;;;;;;;5037099;28;20025;-69
2021/09/29 17:36:56;;;;;;;2.00;1.40;;;;;;;;;;5031640;28;20041;-69
2021/09/29 17:52:54;;;;;;;2.90;1.55;;;;;;;;;;5032132;28;20103;-69
2021/09/29 17:55:22;;;;;;;3.15;2.13;;;;;;;;;;5037955;28;20026;-69
2021/09/29 17:57:50;;;;;;;1.98;1.63;;;;;;;;;;5032886;28;20479;-69
2021/09/29 18:00:18;;;;;;;3.35;1.80;;;;;;;;;;5041888;28;20025;-69
2021/09/29 18:02:56;;;;;;;4.45;2.33;;;;;;;;;;5043529;28;20025;-69
2021/09/29 18:05:31;;;;;;;2.92;2.15;;;;;;;;;;5033490;28;20044;-69
2021/09/29 18:07:58;;;;;;;3.85;1.98;;;;;;;;;;5037416;28;20107;-69
2021/09/29 18:10:29;;;;;;;3.85;1.95;;;;;;;;;;5032300;28;20470;-69
2021/09/29 18:12:57;;;;;;;2.80;2.42;;;;;;;;;;5035802;28;20433;-69
2021/09/29 18:15:24;;;;;;;4.60;1.77;;;;;;;;;;5044239;28;20040;-69
2021/09/29 18:17:51;;;;;;;2.95;1.90;;;;;;;;;;5044383;28;20029;-69
2021/09/29 18:20:18;;;;;;;1.98;1.75;;;;;;;;;;5042033;28;20032;-69
2021/09/29 18:22:45;;;;;;;4.05;1.80;;;;;;;;;;5043875;28;20481;-69
2021/09/29 18:25:13;;;;;;;3.45;1.92;;;;;;;;;;5042738;28;20033;-70
2021/09/29 18:27:40;;;;;;;3.13;1.95;;;;;;;;;;5043991;28;20037;-69
2021/09/29 18:30:14;;;;;;;3.13;2.25;;;;;;;;;;5040616;28;20055;-69
2021/09/29 18:32:42;;;;;;;2.80;2.05;;;;;;;;;;5038180;28;20013;-69
2021/09/29 18:35:14;;;;;;;2.72;2.00;;;;;;;;;;5037071;28;20065;-69
2021/09/29 18:37:43;;;;;;;4.45;1.90;;;;;;;;;;5041477;28;20017;-69
2021/09/29 18:40:13;;;;;;;2.22;1.83;;;;;;;;;;5036970;28;20041;-69
2021/09/29 18:42:41;;;;;;;3.90;2.00;;;;;;;;;;5037289;28;20490;-69
2021/09/29 18:45:09;;;;;;;3.92;2.70;;;;;;;;;;5037591;28;20486;-69
2021/09/29 18:47:36;;;;;;;2.05;1.80;;;;;;;;;;5040664;28;20014;-69
2021/09/29 18:50:04;;;;;;;2.38;2.00;;;;;;;;;;5038297;28;20033;-69
2021/09/29 18:52:31;;;;;;;6.40;2.50;;;;;;;;;;5034043;28;20052;-70
2021/09/29 18:55:11;;;;;;;3.00;2.08;;;;;;;;;;5045905;28;20423;-69
2021/09/29 19:03:46;;;;;;;3.20;2.40;;;;;;;;;;5034751;28;20036;-69